SBFZSBRF

Guest
Details From SBFZ - Pinto Martins
To SBRF - Recife Intl
Flight Number -
Tags Generated
Created
Modified
Stats Distance 339 nm / 629 km
Max Altitude 0 ft / 0 m
Waypoints 3
Social Downloads 4
Likes 0
Share VATSIM

Download

Looking for another format? Having issues loading an existing format? Contact us
Advertisement - Login to hide

Notes

Generated

Route

SBFZ OLD SBRF

ID Type Via Altitude Latitude Longitude Leg Dist Tot Dist Heading (true) Name
O SBFZ APT - 0 ft / 0 m -3.77334˚ -38.54365˚ - 0 nm - -
OLD NDB - 0 ft / 0 m -8.03850˚ -34.95200˚ 334 nm 334 nm 140° / 140° OLINDA NDB
O SBRF APT - 0 ft / 0 m -8.12516˚ -34.92862˚ 5 nm 339 nm 165° / 165° -

Altitude Profile

Advertisement - Login to hide

Weather


0- 5 10 15 20 25 30 35+ Temperature / ° C

Clouds and Precipitation
Forecast for 2017-12-11 06:00 UTC. Updated 20 minutes ago

Ground ~20,000 ft ~40,000 ft Winds

SBFZ

Details ICAO SBFZ (FOR)
Name Pinto Martins
Region Brazil
Timezone America/Fortaleza (UTC-3.0)
Stats Elevation 82 ft / 25 m (AMSL)
Location -3.776283° -38.532556°
Runways 1
Magnetic Variation 21.126° W

METAR

SBFZ 110500Z 07005KT 9999 SCT018 27/23 Q1009

Decode

TAF

TAF SBFZ 102200Z 1100/1124 07006KT 9999 SCT020 TN26/1108Z TX31/1114Z BECMG 1110/1112 08011KT BKN020 BECMG 1114/1116 SCT030 BECMG 1121/1122 07007KT RMK PEU

Decode

Departure Runways

ID Width Length Bearing (true) Bearing (mag) Surface Threshold Offset Overrun Length
13 148 ft / 45 m 8,360 ft / 2,548 m 104.88° 126.01° Asphalt 0 ft / 0 m 195 ft / 59 m
31 148 ft / 45 m 8,360 ft / 2,548 m 284.88° 306.01° Asphalt 0 ft / 0 m 125 ft / 38 m

SBRF

Details ICAO SBRF (REC)
Name Recife Intl
Region Brazil
Timezone America/Recife (UTC-3.0)
Stats Elevation 33 ft / 10 m (AMSL)
Location -8.127896° -34.922981°
Runways 2
Magnetic Variation 22.088° W

METAR

SBRF 110500Z 30004KT 9999 SCT020 25/23 Q1010

Decode

TAF

TAF SBRF 102200Z 1100/1124 04009KT 9999 SCT020 TN25/1108Z TX30/1115Z BECMG 1104/1105 34005KT BECMG 1110/1112 04011KT 8000 BKN018 BECMG 1115/1116 07012KT SCT020 RMK PEU

Decode

Destination Runways

ID Width Length Bearing (true) Bearing (mag) Surface Threshold Offset Overrun Length
01 98 ft / 30 m 4,979 ft / 1,518 m 304.20° 326.29° Asphalt 300 ft / 91 m 0 ft / 0 m
18 148 ft / 45 m 9,915 ft / 3,022 m 161.91° 184.00° Asphalt 1,225 ft / 373 m 0 ft / 0 m
19 98 ft / 30 m 4,979 ft / 1,518 m 124.20° 146.29° Asphalt 300 ft / 91 m 0 ft / 0 m
36 148 ft / 45 m 9,915 ft / 3,022 m 341.91° 4.00° Asphalt 0 ft / 0 m 350 ft / 107 m

Approach Navaids

Runway Type Ident Frequency Range Bearing (true) Bearing (mag) Slope Elevation
18 Localiser IRF 110.30 MHz 18 nm / 33 km 161.91° 184.00° - 33 ft / 10 m (AMSL)
18 Glidescope IRF 110.30 MHz 10 nm / 19 km 161.91° 184.00° 3.00° 33 ft / 10 m (AMSL)

Popular Alternatives